Time;durP1;ratioP1;P1;durP2;ratioP2;P2;SDS_P1;SDS_P2;PMS_P1;PMS_P2;Temp;Humidity;BMP_temperature;BMP_pressure;BME280_temperature;BME280_humidity;BME280_pressure;Samples;Min_cycle;Max_cycle;Signal;HPM_P1;HPM_P2
2023/07/30 00:02:38;;;;;;;3.80;2.60;;;;;;;25.76;39.84;94911.28;6119431;28;109100;-68
2023/07/30 00:05:42;;;;;;;2.73;2.47;;;;;;;25.74;40.00;94910.81;6119212;28;109556;-72
2023/07/30 00:08:45;;;;;;;3.27;2.20;;;;;;;25.74;40.15;94910.81;6123092;28;109133;-71
2023/07/30 00:11:49;;;;;;;2.80;2.50;;;;;;;25.74;39.49;94904.69;6139413;28;109285;-71
2023/07/30 00:14:52;;;;;;;3.20;2.23;;;;;;;25.71;40.06;94906.13;6135312;28;109168;-71
2023/07/30 00:17:55;;;;;;;2.57;2.37;;;;;;;25.72;39.83;94907.69;6116473;28;110092;-71
2023/07/30 00:20:59;;;;;;;3.20;2.90;;;;;;;25.68;40.01;94904.09;6126234;28;109067;-71
2023/07/30 00:24:02;;;;;;;2.70;2.50;;;;;;;25.65;39.73;94905.53;6125934;28;109125;-71
2023/07/30 00:27:07;;;;;;;2.80;2.60;;;;;;;25.66;40.26;94907.09;6127381;28;109932;-70
2023/07/30 00:30:11;;;;;;;2.47;2.27;;;;;;;25.67;40.08;94902.53;6134995;28;108850;-71
2023/07/30 00:33:14;;;;;;;2.80;2.30;;;;;;;25.61;40.13;94896.59;6116529;28;110590;-59
2023/07/30 00:36:18;;;;;;;2.80;2.60;;;;;;;25.64;39.98;94893.25;6130160;28;110139;-59
2023/07/30 00:39:21;;;;;;;2.70;2.50;;;;;;;25.64;39.94;94897.84;6124378;28;111630;-60
2023/07/30 00:42:25;;;;;;;2.90;2.30;;;;;;;25.60;40.18;94894.25;6123561;28;109961;-59
2023/07/30 00:45:29;;;;;;;2.50;2.30;;;;;;;25.60;40.33;94892.38;6138762;28;109175;-60
2023/07/30 00:48:32;;;;;;;3.50;3.30;;;;;;;25.40;40.77;94895.09;6122010;28;109119;-60
2023/07/30 00:51:36;;;;;;;2.83;2.63;;;;;;;25.36;40.80;94892.28;6118059;28;109107;-60
2023/07/30 00:54:40;;;;;;;3.07;2.87;;;;;;;25.42;40.61;94890.97;6126388;28;109045;-60
2023/07/30 00:57:46;;;;;;;3.10;2.40;;;;;;;25.49;40.72;94895.78;6124676;28;109036;-60
2023/07/30 01:00:49;;;;;;;4.13;2.97;;;;;;;25.50;40.62;94890.09;6114329;28;108797;-60
2023/07/30 01:03:52;;;;;;;2.43;2.23;;;;;;;25.47;40.79;94888.09;6108191;28;109002;-60
2023/07/30 01:06:55;;;;;;;2.90;2.57;;;;;;;25.41;40.87;94894.00;6116344;28;110154;-59
2023/07/30 01:09:59;;;;;;;4.40;2.53;;;;;;;25.35;41.30;94896.06;6121431;28;110198;-59
2023/07/30 01:13:05;;;;;;;3.23;2.93;;;;;;;25.12;41.67;94902.88;6113211;28;110520;-60
2023/07/30 01:16:08;;;;;;;3.07;2.77;;;;;;;25.06;41.83;94899.63;6101614;28;110199;-59
2023/07/30 01:19:11;;;;;;;3.63;3.20;;;;;;;24.96;42.34;94905.38;6114098;28;109647;-60
2023/07/30 01:22:16;;;;;;;3.57;3.27;;;;;;;25.02;42.34;94898.69;6119625;28;110294;-59
2023/07/30 01:25:24;;;;;;;3.57;3.23;;;;;;;24.85;42.91;94902.31;6115347;28;110069;-59
2023/07/30 01:28:29;;;;;;;3.43;3.13;;;;;;;24.81;42.51;94897.94;6116470;28;109300;-59
2023/07/30 01:31:35;;;;;;;3.83;3.53;;;;;;;24.87;42.51;94897.44;6114120;28;109480;-59
2023/07/30 01:34:41;;;;;;;3.60;3.30;;;;;;;24.82;42.75;94894.16;6122905;28;109058;-60
2023/07/30 01:37:46;;;;;;;3.67;3.30;;;;;;;24.85;42.87;94893.50;6110954;28;110973;-60
2023/07/30 01:40:49;;;;;;;6.37;3.30;;;;;;;24.92;42.52;94891.88;6114041;28;109105;-60
2023/07/30 01:43:52;;;;;;;4.13;3.73;;;;;;;25.01;42.50;94902.50;6114038;28;110095;-62
2023/07/30 01:46:55;;;;;;;4.30;3.90;;;;;;;25.03;42.38;94897.59;6105255;28;109211;-61
2023/07/30 01:49:59;;;;;;;4.10;3.70;;;;;;;25.00;42.37;94901.72;6113930;28;109872;-60
2023/07/30 01:53:03;;;;;;;5.73;3.43;;;;;;;25.01;42.40;94900.59;6129349;28;110261;-61
2023/07/30 01:56:06;;;;;;;3.40;3.10;;;;;;;25.09;42.15;94899.75;6128697;28;110876;-62
2023/07/30 01:59:09;;;;;;;3.20;3.00;;;;;;;25.21;41.83;94908.97;6106420;28;110270;-62
2023/07/30 02:02:12;;;;;;;3.93;3.53;;;;;;;25.23;41.39;94914.78;6113826;28;110315;-61
2023/07/30 02:05:15;;;;;;;4.10;3.80;;;;;;;25.17;41.99;94906.13;6113863;28;110122;-61
2023/07/30 02:08:20;;;;;;;4.07;3.23;;;;;;;25.09;41.95;94907.78;6125088;28;109518;-61
2023/07/30 02:11:23;;;;;;;3.87;3.33;;;;;;;25.04;41.88;94909.91;6107489;28;110127;-62
2023/07/30 02:14:26;;;;;;;3.50;3.20;;;;;;;25.05;42.08;94908.78;6122315;28;110893;-62
2023/07/30 02:17:29;;;;;;;4.30;3.43;;;;;;;25.08;41.94;94908.91;6127704;28;109684;-62
2023/07/30 02:20:32;;;;;;;3.83;3.53;;;;;;;25.09;41.58;94910.47;6112783;28;111260;-61
2023/07/30 02:23:37;;;;;;;3.47;3.17;;;;;;;25.04;41.24;94912.56;6112079;28;109200;-61
2023/07/30 02:26:40;;;;;;;3.63;3.33;;;;;;;25.12;41.65;94919.75;6134378;28;110078;-61
2023/07/30 02:29:43;;;;;;;3.60;3.30;;;;;;;25.01;41.48;94922.00;6110595;28;110464;-62
2023/07/30 02:32:47;;;;;;;3.70;3.40;;;;;;;24.98;41.45;94920.00;6103832;28;110077;-64
2023/07/30 02:35:50;;;;;;;3.00;2.80;;;;;;;25.13;41.54;94925.88;6129656;28;109432;-62
2023/07/30 02:38:55;;;;;;;3.30;3.10;;;;;;;25.24;41.21;94925.16;6117782;28;109046;-61
2023/07/30 02:41:58;;;;;;;3.57;3.07;;;;;;;25.30;40.99;94923.03;6130040;28;109198;-62
2023/07/30 02:45:01;;;;;;;3.30;3.00;;;;;;;25.25;41.37;94917.91;6125364;28;109782;-62
2023/07/30 02:48:05;;;;;;;3.13;2.93;;;;;;;25.23;41.09;94925.47;6120974;28;110352;-62
2023/07/30 02:51:08;;;;;;;3.53;3.23;;;;;;;25.10;41.29;94932.66;6117681;28;109097;-62
2023/07/30 02:54:13;;;;;;;4.37;3.30;;;;;;;25.02;41.56;94920.91;6123571;28;109059;-60
2023/07/30 02:57:16;;;;;;;3.13;2.87;;;;;;;24.90;41.66;94931.56;6106726;28;111293;-59
2023/07/30 03:00:19;;;;;;;3.50;3.20;;;;;;;24.78;41.97;94934.94;6112185;28;109754;-60
2023/07/30 03:03:22;;;;;;;3.30;3.03;;;;;;;24.60;42.37;94933.47;6114367;28;109136;-59
2023/07/30 03:06:25;;;;;;;3.73;3.37;;;;;;;24.55;42.89;94935.56;6107276;28;109397;-59
2023/07/30 03:09:30;;;;;;;3.80;3.30;;;;;;;24.55;42.52;94938.22;6115908;28;109128;-59
2023/07/30 03:12:33;;;;;;;3.40;3.10;;;;;;;24.54;42.55;94931.31;6112635;28;109095;-59
2023/07/30 03:15:36;;;;;;;3.60;3.30;;;;;;;24.64;42.13;94944.28;6112877;28;109601;-61
2023/07/30 03:18:39;;;;;;;3.90;3.60;;;;;;;24.96;41.61;94942.84;6106308;28;109390;-60
2023/07/30 03:21:43;;;;;;;3.50;3.20;;;;;;;25.02;41.54;94941.53;6102564;28;109193;-61
2023/07/30 03:24:48;;;;;;;3.97;3.50;;;;;;;24.98;41.71;94946.78;6115825;28;109118;-59
2023/07/30 03:27:51;;;;;;;3.80;3.50;;;;;;;24.77;42.25;94945.97;6132723;28;109305;-60
2023/07/30 03:30:54;;;;;;;6.63;3.70;;;;;;;24.59;42.85;94942.59;6111921;28;109108;-60
2023/07/30 03:33:58;;;;;;;4.80;3.53;;;;;;;24.70;42.49;94937.69;6126462;28;109072;-60
2023/07/30 03:37:01;;;;;;;4.20;3.80;;;;;;;24.81;42.57;94936.19;6135185;28;109482;-60
2023/07/30 03:40:07;;;;;;;5.00;4.50;;;;;;;24.82;42.34;94935.06;6131233;28;109593;-63
2023/07/30 03:43:11;;;;;;;10.87;10.07;;;;;;;24.89;42.11;94943.38;6131349;28;108959;-60
2023/07/30 03:46:14;;;;;;;26.57;24.37;;;;;;;24.96;42.32;94932.94;6120339;28;109717;-60
2023/07/30 03:49:17;;;;;;;12.40;11.50;;;;;;;24.96;42.27;94938.28;6120317;28;110020;-60
2023/07/30 03:52:21;;;;;;;8.40;7.70;;;;;;;24.90;42.60;94944.16;6115657;28;109217;-60
2023/07/30 03:55:25;;;;;;;10.80;9.70;;;;;;;24.85;42.63;94939.00;6139190;28;109452;-61
2023/07/30 03:58:30;;;;;;;7.23;6.63;;;;;;;24.85;42.50;94939.00;6123101;28;110271;-60
2023/07/30 04:01:33;;;;;;;8.07;7.37;;;;;;;24.95;42.43;94949.31;6128532;28;108806;-60
2023/07/30 04:04:37;;;;;;;8.40;7.60;;;;;;;25.00;42.59;94955.25;6118364;28;109180;-60
2023/07/30 04:07:40;;;;;;;8.30;5.20;;;;;;;24.97;42.70;94955.13;6134104;28;109306;-62
2023/07/30 04:10:44;;;;;;;5.17;4.67;;;;;;;24.81;43.15;94960.28;6115444;28;109368;-60
2023/07/30 04:13:48;;;;;;;4.60;4.20;;;;;;;24.72;43.24;94962.25;6099202;28;109427;-62
2023/07/30 04:16:51;;;;;;;5.17;4.77;;;;;;;24.62;43.68;94959.91;6115781;28;109123;-60
2023/07/30 04:19:54;;;;;;;5.10;4.43;;;;;;;24.47;43.52;94958.56;6116843;28;109027;-60
2023/07/30 04:22:58;;;;;;;7.30;4.30;;;;;;;24.69;43.71;94957.50;6119435;28;109096;-61
2023/07/30 04:26:02;;;;;;;4.50;4.10;;;;;;;24.87;42.97;94956.31;6128668;28;109286;-61
2023/07/30 04:29:05;;;;;;;5.97;4.67;;;;;;;24.72;43.39;94951.53;6119454;28;109207;-61
2023/07/30 04:32:09;;;;;;;4.67;4.07;;;;;;;24.54;44.11;94953.50;6124933;28;109132;-61
2023/07/30 04:35:12;;;;;;;4.43;4.03;;;;;;;24.67;43.49;94954.34;6130171;28;109103;-60
2023/07/30 04:38:15;;;;;;;5.23;4.60;;;;;;;24.70;43.34;94959.88;6121725;28;109293;-61
2023/07/30 04:41:20;;;;;;;7.47;5.27;;;;;;;24.69;43.65;94960.19;6123267;28;111997;-62
2023/07/30 04:44:23;;;;;;;7.67;7.17;;;;;;;24.78;43.41;94964.38;6105525;28;109471;-60
2023/07/30 04:47:26;;;;;;;9.60;8.50;;;;;;;24.81;43.18;94970.19;6119423;28;110243;-61
2023/07/30 04:50:29;;;;;;;7.53;7.00;;;;;;;24.69;43.67;94965.53;6114178;28;109053;-61
2023/07/30 04:53:33;;;;;;;9.20;8.47;;;;;;;24.71;43.30;94958.00;6139446;28;109531;-60
2023/07/30 04:56:37;;;;;;;6.30;5.80;;;;;;;24.74;43.46;94963.47;6124725;28;109107;-60
2023/07/30 04:59:40;;;;;;;8.67;7.97;;;;;;;24.65;43.57;94961.91;6119321;28;109779;-62
2023/07/30 05:02:43;;;;;;;14.23;13.13;;;;;;;24.85;43.04;94966.53;6124593;28;108879;-60
2023/07/30 05:05:47;;;;;;;19.43;17.53;;;;;;;24.67;43.81;94971.19;6129596;28;109014;-60
2023/07/30 05:08:50;;;;;;;15.60;13.60;;;;;;;24.59;44.02;94973.94;6138517;28;109254;-61
2023/07/30 05:11:54;;;;;;;13.20;12.00;;;;;;;24.69;43.86;94970.88;6125925;28;109089;-61
2023/07/30 05:14:57;;;;;;;15.37;13.90;;;;;;;24.79;43.56;94965.97;6128210;28;109207;-66
2023/07/30 05:18:00;;;;;;;11.07;9.97;;;;;;;24.86;43.88;94962.75;6138394;28;109182;-66
2023/07/30 05:21:04;;;;;;;11.00;9.47;;;;;;;24.99;43.14;94964.41;6138429;28;108983;-66
2023/07/30 05:24:08;;;;;;;15.10;11.30;;;;;;;24.88;43.89;94965.91;6113632;28;109282;-66
2023/07/30 05:27:13;;;;;;;7.17;6.50;;;;;;;24.87;43.52;94961.66;6108743;28;109586;-66
2023/07/30 05:30:16;;;;;;;8.50;7.60;;;;;;;24.85;43.66;94961.19;6111986;28;109316;-66
2023/07/30 05:33:20;;;;;;;7.30;5.40;;;;;;;24.78;44.24;94971.63;6091703;28;109592;-67
2023/07/30 05:36:23;;;;;;;10.90;6.90;;;;;;;24.83;44.61;94965.31;6106607;28;109110;-66
2023/07/30 05:39:26;;;;;;;12.97;6.10;;;;;;;24.72;44.67;94964.91;6122346;28;110448;-67
2023/07/30 05:42:30;;;;;;;8.33;5.33;;;;;;;24.70;44.93;94967.91;6137366;28;109054;-67
2023/07/30 05:45:35;;;;;;;5.00;4.50;;;;;;;24.73;44.83;94972.63;6127625;28;109506;-66
2023/07/30 05:48:38;;;;;;;15.93;6.33;;;;;;;25.07;43.63;94979.63;6130075;28;111562;-66
2023/07/30 05:51:41;;;;;;;7.23;4.97;;;;;;;25.01;44.02;94977.47;6114074;28;109104;-67
2023/07/30 05:54:44;;;;;;;5.50;5.10;;;;;;;25.02;44.75;94982.50;6113661;28;109285;-66
2023/07/30 05:57:48;;;;;;;6.03;4.63;;;;;;;25.06;44.29;94974.59;6103720;28;109901;-67
2023/07/30 06:00:52;;;;;;;5.00;3.90;;;;;;;24.94;44.67;94972.63;6114366;28;110210;-67
2023/07/30 06:03:55;;;;;;;5.53;4.53;;;;;;;25.00;44.49;94979.34;6112983;28;109197;-67
2023/07/30 06:07:00;;;;;;;5.27;4.13;;;;;;;25.02;44.60;94977.13;6106933;28;109285;-67
2023/07/30 06:10:04;;;;;;;4.93;4.53;;;;;;;25.00;44.33;94979.34;6102069;28;109228;-67
2023/07/30 06:13:08;;;;;;;4.90;4.50;;;;;;;25.25;43.51;94969.56;6137561;28;110092;-67
2023/07/30 06:16:11;;;;;;;13.70;12.60;;;;;;;25.34;43.90;94977.53;6137774;28;110919;-66
2023/07/30 06:19:15;;;;;;;9.03;8.23;;;;;;;25.45;42.98;94978.72;6122076;28;109078;-65
2023/07/30 06:22:18;;;;;;;6.97;6.37;;;;;;;25.39;43.34;94972.00;6110977;28;110176;-68
2023/07/30 06:25:21;;;;;;;11.23;7.47;;;;;;;25.11;45.01;94970.94;6114118;28;109238;-60
2023/07/30 06:28:25;;;;;;;8.03;7.23;;;;;;;24.74;45.88;94968.03;6116052;28;109064;-60
2023/07/30 06:31:29;;;;;;;8.53;7.70;;;;;;;24.48;45.23;94966.25;6124805;28;109088;-61
2023/07/30 06:34:32;;;;;;;7.30;6.60;;;;;;;24.22;45.24;94970.97;6137750;28;109306;-63
2023/07/30 06:37:35;;;;;;;7.77;6.97;;;;;;;24.22;44.69;94968.28;6131073;28;109090;-60
2023/07/30 06:40:38;;;;;;;7.57;6.97;;;;;;;23.94;44.41;94959.06;6130145;28;110114;-61
2023/07/30 06:43:43;;;;;;;7.60;6.90;;;;;;;23.86;43.67;94961.44;6107216;28;110868;-62
2023/07/30 06:46:46;;;;;;;8.33;6.33;;;;;;;23.56;43.09;94954.44;6134747;28;108972;-60
2023/07/30 06:49:49;;;;;;;8.23;5.70;;;;;;;23.48;42.88;94953.34;6127273;28;109057;-60
2023/07/30 06:52:52;;;;;;;6.00;5.50;;;;;;;23.38;42.29;94948.34;6118816;28;109309;-61
2023/07/30 06:55:55;;;;;;;6.83;6.13;;;;;;;23.43;41.81;94940.16;6116130;28;110258;-61
2023/07/30 06:59:00;;;;;;;5.97;5.40;;;;;;;23.34;41.73;94939.38;6128851;28;109914;-61
2023/07/30 07:02:05;;;;;;;7.23;6.53;;;;;;;22.97;41.73;94932.75;6133007;28;109685;-60
2023/07/30 07:05:08;;;;;;;7.00;6.40;;;;;;;23.10;41.39;94931.81;6116809;28;109185;-59
2023/07/30 07:08:11;;;;;;;6.90;6.30;;;;;;;23.29;41.28;94937.66;6112962;28;108810;-61
2023/07/30 07:11:14;;;;;;;8.13;6.90;;;;;;;23.27;40.60;94926.47;6125805;28;109261;-60
2023/07/30 07:14:18;;;;;;;7.60;6.30;;;;;;;23.00;41.01;94926.78;6112124;28;109292;-60
2023/07/30 07:17:21;;;;;;;7.13;6.53;;;;;;;23.32;40.17;94924.78;6095734;28;112580;-61
2023/07/30 07:20:24;;;;;;;9.70;7.70;;;;;;;23.59;39.96;94919.06;6112484;28;108876;-61
2023/07/30 07:23:28;;;;;;;8.43;7.63;;;;;;;23.59;39.99;94908.38;6107586;28;109768;-61
2023/07/30 07:26:31;;;;;;;8.60;7.70;;;;;;;23.32;41.63;94906.84;6111286;28;109302;-60
2023/07/30 07:29:36;;;;;;;8.85;7.60;;;;;;;23.19;41.83;94905.94;6103343;28;109276;-59
2023/07/30 07:32:39;;;;;;;8.60;7.80;;;;;;;23.14;41.32;94906.06;6134040;28;109006;-60
2023/07/30 07:35:42;;;;;;;10.60;8.43;;;;;;;23.44;41.12;94896.31;6121493;28;109245;-61
2023/07/30 07:38:45;;;;;;;8.10;7.23;;;;;;;23.53;41.49;94899.78;6103002;28;109651;-60
2023/07/30 07:41:48;;;;;;;7.73;7.03;;;;;;;23.59;41.97;94903.06;6123526;28;110166;-60
2023/07/30 07:44:53;;;;;;;8.47;7.53;;;;;;;23.74;40.99;94899.88;6120458;28;109605;-60
2023/07/30 07:47:56;;;;;;;12.73;8.40;;;;;;;23.50;42.06;94894.25;6118035;28;109113;-60
2023/07/30 07:50:59;;;;;;;13.10;7.00;;;;;;;23.53;41.87;94893.66;6101509;28;109225;-60
2023/07/30 07:54:02;;;;;;;7.70;7.00;;;;;;;23.53;42.26;94889.09;6113746;28;109420;-60
2023/07/30 07:57:05;;;;;;;10.60;8.27;;;;;;;23.38;42.74;94891.47;6121123;28;110175;-61
2023/07/30 08:00:11;;;;;;;11.80;7.20;;;;;;;23.20;42.91;94885.34;6106215;28;110473;-60
2023/07/30 08:03:14;;;;;;;9.37;7.30;;;;;;;23.18;43.44;94888.31;6101190;28;109267;-59
2023/07/30 08:06:17;;;;;;;9.40;8.33;;;;;;;23.40;43.17;94878.59;6119250;28;111136;-60
2023/07/30 08:09:20;;;;;;;8.87;8.07;;;;;;;23.29;42.79;94884.25;6111158;28;109115;-59
2023/07/30 08:12:23;;;;;;;7.80;7.17;;;;;;;23.17;42.46;94869.94;6105946;28;109107;-64
2023/07/30 08:15:27;;;;;;;8.57;7.73;;;;;;;23.15;42.76;94866.81;6119387;28;109992;-60
2023/07/30 08:18:31;;;;;;;9.13;8.23;;;;;;;23.10;43.07;94869.66;6113497;28;109100;-59
2023/07/30 08:21:34;;;;;;;9.90;9.03;;;;;;;23.08;42.82;94867.31;6112578;28;109238;-59
2023/07/30 08:24:37;;;;;;;10.70;9.80;;;;;;;23.05;43.01;94872.50;6100183;28;109160;-59
2023/07/30 08:27:40;;;;;;;11.70;10.67;;;;;;;23.26;42.90;94871.50;6114038;28;109209;-59
2023/07/30 08:30:45;;;;;;;11.80;10.67;;;;;;;23.23;42.80;94864.13;6123911;28;110066;-60
2023/07/30 08:33:48;;;;;;;11.57;10.30;;;;;;;23.11;42.96;94860.53;6125647;28;109169;-59
2023/07/30 08:36:52;;;;;;;11.40;10.37;;;;;;;23.13;42.38;94853.78;6119447;28;109312;-59
2023/07/30 08:39:55;;;;;;;11.90;10.90;;;;;;;23.16;43.04;94850.47;6128977;28;109164;-59
2023/07/30 08:42:59;;;;;;;11.83;10.83;;;;;;;23.01;43.05;94841.06;6126613;28;109400;-59
2023/07/30 08:46:04;;;;;;;10.83;9.93;;;;;;;23.39;42.51;94850.31;6114343;28;110447;-60
2023/07/30 08:49:07;;;;;;;11.83;10.73;;;;;;;23.47;42.87;94844.94;6102260;28;109908;-61
2023/07/30 08:52:11;;;;;;;11.50;10.43;;;;;;;23.62;42.71;94840.97;6113396;28;109529;-60
2023/07/30 08:55:14;;;;;;;10.80;9.70;;;;;;;23.34;43.53;94847.81;6127094;28;109352;-60
2023/07/30 08:58:19;;;;;;;10.45;9.45;;;;;;;23.54;42.72;94842.56;6107368;28;110077;-60
2023/07/30 09:01:23;;;;;;;10.75;9.65;;;;;;;23.34;43.45;94842.47;6120547;28;109226;-60
2023/07/30 09:04:27;;;;;;;13.90;9.25;;;;;;;23.47;42.53;94836.16;6103170;28;109246;-62
2023/07/30 09:07:30;;;;;;;10.60;8.88;;;;;;;23.17;43.04;94828.00;6120326;28;110132;-60
2023/07/30 09:10:33;;;;;;;9.40;8.50;;;;;;;23.19;42.92;94827.72;6103651;28;110250;-60
2023/07/30 09:13:39;;;;;;;9.50;8.50;;;;;;;23.45;41.49;94825.00;6113173;28;109243;-61
2023/07/30 09:16:44;;;;;;;8.90;8.00;;;;;;;23.26;42.24;94834.13;6112140;28;109619;-60
2023/07/30 09:19:47;;;;;;;9.07;8.25;;;;;;;23.27;42.21;94819.69;6112670;28;109612;-60
2023/07/30 09:22:50;;;;;;;9.73;8.60;;;;;;;23.32;41.70;94815.28;6102343;28;109391;-60
2023/07/30 09:25:58;;;;;;;9.73;8.43;;;;;;;23.36;41.54;94817.03;6121488;28;109273;-63
2023/07/30 09:29:02;;;;;;;9.45;8.20;;;;;;;23.19;41.73;94815.16;6112814;28;109622;-60
2023/07/30 09:32:08;;;;;;;8.70;7.80;;;;;;;23.25;41.24;94808.53;6108048;28;109379;-61
2023/07/30 09:35:12;;;;;;;11.57;7.90;;;;;;;23.25;41.22;94808.53;6109198;28;109250;-60
2023/07/30 09:38:15;;;;;;;8.43;7.55;;;;;;;22.98;42.33;94814.25;6099414;28;109574;-61
2023/07/30 09:41:18;;;;;;;9.30;7.50;;;;;;;22.88;42.14;94807.38;6118105;28;109583;-63
2023/07/30 09:44:22;;;;;;;8.60;7.22;;;;;;;23.03;42.32;94798.09;6102496;28;109307;-65
2023/07/30 09:47:28;;;;;;;11.63;7.67;;;;;;;23.00;43.94;94798.69;6113419;28;109192;-62
2023/07/30 09:50:31;;;;;;;13.10;7.30;;;;;;;22.92;43.73;94788.84;6098807;28;109105;-61
2023/07/30 09:53:35;;;;;;;12.05;7.00;;;;;;;22.83;44.41;94790.72;6109717;28;109126;-61
2023/07/30 09:56:39;;;;;;;8.97;7.00;;;;;;;22.98;43.68;94790.22;6106480;28;111465;-68
2023/07/30 09:59:43;;;;;;;12.50;7.10;;;;;;;22.88;44.01;94783.34;6112491;28;108964;-68
2023/07/30 10:02:50;;;;;;;9.52;6.40;;;;;;;22.92;44.05;94786.16;6112718;28;109238;-67
2023/07/30 10:05:59;;;;;;;9.82;6.85;;;;;;;22.81;43.97;94779.59;6112118;28;109638;-63
2023/07/30 10:09:05;;;;;;;9.67;6.67;;;;;;;22.79;44.77;94779.91;6107963;28;109499;-67
2023/07/30 10:12:09;;;;;;;9.10;6.43;;;;;;;22.75;44.18;94772.84;6121752;28;109366;-68
2023/07/30 10:15:13;;;;;;;8.43;6.50;;;;;;;22.78;44.10;94770.34;6119481;28;109169;-66
2023/07/30 10:18:17;;;;;;;9.82;6.45;;;;;;;22.63;44.95;94770.81;6102261;28;110219;-67
2023/07/30 10:21:24;;;;;;;9.18;6.28;;;;;;;22.93;43.87;94766.38;6102954;28;109331;-68
2023/07/30 10:24:27;;;;;;;9.10;6.50;;;;;;;22.73;45.03;94767.84;6120125;28;109551;-67
2023/07/30 10:27:39;;;;;;;11.50;6.70;;;;;;;22.83;44.56;94764.03;6124404;28;109279;-66
2023/07/30 10:30:42;;;;;;;12.70;6.23;;;;;;;22.98;43.65;94763.53;6106485;28;109927;-68
2023/07/30 10:33:50;;;;;;;8.23;6.10;;;;;;;22.79;44.48;94760.44;6135483;28;109291;-67
2023/07/30 10:36:55;;;;;;;7.00;5.70;;;;;;;22.73;44.23;94756.38;6127188;28;110541;-66
2023/07/30 10:39:58;;;;;;;8.35;5.63;;;;;;;22.74;44.40;94742.72;6111926;28;109132;-65
2023/07/30 10:43:03;;;;;;;8.60;5.60;;;;;;;22.87;44.63;94743.66;6103430;28;110061;-66
2023/07/30 10:46:06;;;;;;;8.23;5.78;;;;;;;22.76;45.10;94747.75;6111491;28;110267;-66
2023/07/30 10:49:12;;;;;;;11.65;6.20;;;;;;;22.77;45.16;94733.31;6110942;28;109218;-67
2023/07/30 10:52:16;;;;;;;7.13;5.50;;;;;;;22.79;44.83;94736.44;6101808;28;109266;-65
2023/07/30 10:55:19;;;;;;;7.28;5.90;;;;;;;22.67;45.15;94724.53;6119564;28;109453;-65
2023/07/30 10:58:23;;;;;;;7.07;5.70;;;;;;;22.76;45.07;94716.50;6113789;28;109026;-68
2023/07/30 11:01:27;;;;;;;8.37;6.00;;;;;;;22.79;44.89;94712.44;6106537;28;109334;-67
2023/07/30 11:04:35;;;;;;;7.33;6.10;;;;;;;22.77;44.49;94711.97;6101851;28;113287;-67
2023/07/30 11:07:39;;;;;;;8.57;5.80;;;;;;;22.86;44.46;94707.41;6112011;28;110431;-67
2023/07/30 11:10:46;;;;;;;8.57;6.40;;;;;;;22.86;44.10;94699.41;6098924;28;110230;-67
2023/07/30 11:13:49;;;;;;;8.50;6.10;;;;;;;22.99;43.60;94701.06;6115618;28;112177;-67
2023/07/30 11:16:54;;;;;;;6.70;6.00;;;;;;;22.90;43.69;94703.00;6100663;28;110049;-67
2023/07/30 11:19:59;;;;;;;7.68;5.85;;;;;;;22.91;44.07;94689.31;6119491;28;109342;-68
2023/07/30 11:23:02;;;;;;;8.35;5.70;;;;;;;22.87;43.47;94684.94;6114083;28;109454;-67
2023/07/30 11:26:06;;;;;;;6.63;5.30;;;;;;;22.75;44.19;94684.81;6114992;28;110128;-67
2023/07/30 11:29:16;;;;;;;7.78;5.93;;;;;;;22.71;44.01;94679.34;6094712;28;109266;-68
2023/07/30 11:32:19;;;;;;;12.83;10.77;;;;;;;22.67;43.47;94676.50;6119647;28;109365;-67
2023/07/30 11:35:24;;;;;;;35.33;31.83;;;;;;;22.69;43.43;94676.22;6117191;28;109103;-68
2023/07/30 11:38:28;;;;;;;34.95;31.52;;;;;;;22.72;43.16;94672.91;6100262;28;109138;-68
2023/07/30 11:41:31;;;;;;;30.20;27.02;;;;;;;22.81;43.43;94667.53;6119599;28;110258;-68
2023/07/30 11:44:37;;;;;;;25.65;23.05;;;;;;;22.68;42.84;94667.44;6110962;28;108894;-68
2023/07/30 11:47:41;;;;;;;22.47;20.17;;;;;;;22.66;43.32;94655.50;6120548;28;109097;-68
2023/07/30 11:50:50;;;;;;;20.60;18.50;;;;;;;22.68;42.91;94648.75;6113953;28;109766;-67
2023/07/30 11:53:56;;;;;;;17.90;16.10;;;;;;;22.66;43.02;94648.28;6132921;28;109384;-69
2023/07/30 11:56:59;;;;;;;15.80;14.30;;;;;;;22.74;42.61;94637.91;6121905;28;108956;-68
2023/07/30 12:00:02;;;;;;;15.47;13.87;;;;;;;22.65;43.23;94641.38;6111211;28;109308;-60
2023/07/30 12:03:07;;;;;;;14.20;12.80;;;;;;;22.63;43.05;94632.13;6130784;28;109234;-60
2023/07/30 12:06:13;;;;;;;13.83;12.50;;;;;;;22.66;42.88;94632.28;6108024;28;109426;-62
2023/07/30 12:09:18;;;;;;;13.13;11.97;;;;;;;22.61;43.84;94629.78;6135017;28;110615;-61
2023/07/30 12:12:26;;;;;;;12.57;11.10;;;;;;;22.69;43.40;94617.53;6106169;28;108935;-61
2023/07/30 12:15:30;;;;;;;12.70;11.40;;;;;;;22.68;43.36;94619.44;6132565;28;110147;-66
2023/07/30 12:18:33;;;;;;;12.67;11.47;;;;;;;22.89;42.99;94613.38;6115077;28;109301;-65
2023/07/30 12:21:38;;;;;;;13.80;10.70;;;;;;;23.21;41.96;94604.72;6113806;28;109948;-65
2023/07/30 12:24:42;;;;;;;15.47;10.63;;;;;;;23.65;41.71;94601.78;6103747;28;110818;-66
2023/07/30 12:27:45;;;;;;;14.13;11.10;;;;;;;23.85;40.89;94595.63;6113746;28;109444;-66
2023/07/30 12:30:48;;;;;;;12.80;10.23;;;;;;;23.85;40.33;94585.72;6113981;28;109420;-67
2023/07/30 12:33:52;;;;;;;11.70;10.30;;;;;;;23.81;40.27;94573.34;6123459;28;109787;-65
2023/07/30 12:36:57;;;;;;;13.43;10.20;;;;;;;23.88;40.58;94578.97;6110992;28;109589;-67
2023/07/30 12:40:00;;;;;;;11.80;9.90;;;;;;;23.87;40.57;94574.75;6134902;28;109270;-67
2023/07/30 12:43:04;;;;;;;10.52;9.10;;;;;;;23.92;40.17;94573.75;6114050;28;109107;-67
2023/07/30 12:46:07;;;;;;;11.77;9.02;;;;;;;23.94;40.36;94571.53;6111678;28;109333;-65
2023/07/30 12:49:10;;;;;;;16.53;8.67;;;;;;;23.93;40.09;94567.28;6111915;28;110268;-67
2023/07/30 12:52:14;;;;;;;11.80;8.73;;;;;;;23.78;39.52;94563.34;6109484;28;110524;-67
2023/07/30 12:55:18;;;;;;;9.75;8.85;;;;;;;23.63;39.67;94559.38;6128751;28;109288;-66
2023/07/30 12:58:21;;;;;;;12.40;9.30;;;;;;;23.65;39.67;94551.81;6121599;28;113091;-67
2023/07/30 13:01:25;;;;;;;10.85;8.40;;;;;;;23.59;39.71;94548.56;6111389;28;109225;-66
2023/07/30 13:04:28;;;;;;;10.15;8.35;;;;;;;23.43;40.13;94547.59;6119784;28;108996;-66
2023/07/30 13:07:33;;;;;;;14.77;9.00;;;;;;;23.58;40.36;94541.66;6113783;28;111511;-66
2023/07/30 13:10:36;;;;;;;14.07;8.30;;;;;;;24.06;39.17;94536.84;6103638;28;109395;-65
2023/07/30 13:13:39;;;;;;;9.25;7.20;;;;;;;24.57;39.13;94545.41;6113034;28;109070;-66
2023/07/30 13:16:42;;;;;;;8.48;7.32;;;;;;;24.90;38.72;94542.66;6116230;28;109340;-68
2023/07/30 13:19:45;;;;;;;8.80;7.93;;;;;;;25.08;38.51;94542.06;6123062;28;109828;-66
2023/07/30 13:22:51;;;;;;;8.63;7.67;;;;;;;25.21;38.70;94547.41;6117073;28;110312;-66
2023/07/30 13:25:54;;;;;;;10.37;7.20;;;;;;;25.30;38.98;94543.47;6115466;28;109115;-61
2023/07/30 13:28:57;;;;;;;10.10;7.27;;;;;;;25.38;39.30;94541.84;6120209;28;109179;-62
2023/07/30 13:32:00;;;;;;;9.43;7.50;;;;;;;25.43;39.89;94536.22;6102410;28;110302;-63
2023/07/30 13:35:04;;;;;;;8.50;7.03;;;;;;;25.49;39.71;94532.19;6104179;28;109233;-61
2023/07/30 13:38:08;;;;;;;7.63;6.93;;;;;;;25.52;40.32;94523.47;6131369;28;109079;-61
2023/07/30 13:41:12;;;;;;;9.70;7.20;;;;;;;25.58;40.47;94529.38;6115637;28;109687;-56
2023/07/30 13:44:15;;;;;;;9.10;7.50;;;;;;;25.63;40.82;94523.75;6124636;28;109239;-58
2023/07/30 13:47:18;;;;;;;9.20;7.40;;;;;;;25.69;41.18;94517.03;6125608;28;109183;-57
2023/07/30 13:50:21;;;;;;;12.97;7.10;;;;;;;25.72;41.06;94519.06;6114167;28;109059;-56
2023/07/30 13:53:26;;;;;;;8.37;7.13;;;;;;;25.77;41.64;94523.38;6115181;28;110458;-61
2023/07/30 13:56:30;;;;;;;16.57;7.67;;;;;;;25.78;41.97;94512.31;6120931;28;109285;-56
2023/07/30 13:59:33;;;;;;;8.13;6.97;;;;;;;25.80;42.11;94515.44;6123725;28;109108;-57
2023/07/30 14:02:36;;;;;;;6.90;6.20;;;;;;;25.87;42.36;94506.78;6122080;28;109124;-57
2023/07/30 14:05:40;;;;;;;10.47;6.50;;;;;;;25.89;42.98;94504.56;6114456;28;109204;-60
2023/07/30 14:08:44;;;;;;;9.33;6.77;;;;;;;25.95;42.67;94501.28;6129823;28;110323;-60
2023/07/30 14:11:47;;;;;;;7.37;6.60;;;;;;;26.02;43.02;94498.03;6112948;28;109127;-60